Terminal Aerodrome Forecast
Issued by NWS

Home | Current Version | Previous Version | Text Only | Print | Product List | Glossary On
Versions: 1 2 3 4 5 6 7 8 9 10 11 12 13
000
FTUS43 KIND 050520
TAFHUF
TAF
KHUF 050520Z 0506/0606 00000KT P6SM SCT150 BKN250
     FM050900 00000KT 4SM BR SCT150 BKN250
     FM051300 09005KT P6SM BKN150=

USA.gov is the U.S. government's official web portal to all federal, state and local government web resources and services.